Time;durP1;ratioP1;P1;durP2;ratioP2;P2;SDS_P1;SDS_P2;PMS_P1;PMS_P2;Temp;Humidity;BMP_temperature;BMP_pressure;BME280_temperature;BME280_humidity;BME280_pressure;Samples;Min_cycle;Max_cycle;Signal;HPM_P1;HPM_P2
2022/12/26 00:01:29;;;;;;;205.13;36.00;;;;;;;;;;5075292;28;20663;-85
2022/12/26 00:03:56;;;;;;;215.63;34.87;;;;;;;;;;5057068;28;20287;-85
2022/12/26 00:06:26;;;;;;;238.63;39.47;;;;;;;;;;5056533;28;20344;-85
2022/12/26 00:08:53;;;;;;;214.50;34.63;;;;;;;;;;5057109;28;20291;-85
2022/12/26 00:11:19;;;;;;;213.47;37.93;;;;;;;;;;5074840;28;20722;-85
2022/12/26 00:13:46;;;;;;;199.93;35.37;;;;;;;;;;5057454;28;20346;-85
2022/12/26 00:16:14;;;;;;;240.77;37.07;;;;;;;;;;5056381;28;20862;-85
2022/12/26 00:18:41;;;;;;;264.80;38.57;;;;;;;;;;5074413;28;20283;-85
2022/12/26 00:21:08;;;;;;;221.97;37.37;;;;;;;;;;5056452;28;20287;-85
2022/12/26 00:23:34;;;;;;;224.20;35.47;;;;;;;;;;5074589;28;20774;-84
2022/12/26 00:26:11;;;;;;;179.23;34.27;;;;;;;;;;5056124;28;20373;-85
2022/12/26 00:28:37;;;;;;;203.43;34.57;;;;;;;;;;5074797;28;20285;-85
2022/12/26 00:31:08;;;;;;;184.90;32.80;;;;;;;;;;5073904;28;20290;-85
2022/12/26 00:33:35;;;;;;;162.70;32.67;;;;;;;;;;5057072;28;20746;-85
2022/12/26 00:36:02;;;;;;;160.97;32.00;;;;;;;;;;5056031;28;20323;-84
2022/12/26 00:38:29;;;;;;;191.27;34.03;;;;;;;;;;5056911;28;20289;-84
2022/12/26 00:40:55;;;;;;;143.40;30.20;;;;;;;;;;5074091;28;20279;-85
2022/12/26 00:43:21;;;;;;;157.80;30.60;;;;;;;;;;5073767;28;20425;-84
2022/12/26 00:45:48;;;;;;;163.40;31.23;;;;;;;;;;5074273;28;20310;-86
2022/12/26 00:48:14;;;;;;;142.73;28.63;;;;;;;;;;5056056;28;20779;-85
2022/12/26 00:50:40;;;;;;;174.13;30.23;;;;;;;;;;5056486;28;20318;-84
2022/12/26 00:53:06;;;;;;;162.53;30.90;;;;;;;;;;5056006;28;20797;-84
2022/12/26 00:55:32;;;;;;;175.23;30.30;;;;;;;;;;5039318;28;20299;-84
2022/12/26 00:57:58;;;;;;;148.97;28.50;;;;;;;;;;5039323;28;20286;-84
2022/12/26 01:00:25;;;;;;;158.30;30.10;;;;;;;;;;5055947;28;20318;-84
2022/12/26 01:02:51;;;;;;;152.77;30.03;;;;;;;;;;5073603;28;20314;-84
2022/12/26 01:05:17;;;;;;;136.00;29.30;;;;;;;;;;5055920;28;20370;-84
2022/12/26 01:07:43;;;;;;;170.87;30.20;;;;;;;;;;5056698;28;20329;-84
2022/12/26 01:10:11;;;;;;;159.43;28.83;;;;;;;;;;5073547;28;20367;-84
2022/12/26 01:12:37;;;;;;;143.57;28.13;;;;;;;;;;5055809;28;20289;-84
2022/12/26 01:15:05;;;;;;;165.37;30.70;;;;;;;;;;5073427;28;20279;-84
2022/12/26 01:17:31;;;;;;;150.23;31.27;;;;;;;;;;5055757;28;20283;-84
2022/12/26 01:19:57;;;;;;;177.13;31.23;;;;;;;;;;5039176;28;20318;-84
2022/12/26 01:22:24;;;;;;;203.03;33.83;;;;;;;;;;5056584;28;20308;-84
2022/12/26 01:24:53;;;;;;;147.40;30.00;;;;;;;;;;5055662;28;20297;-83
2022/12/26 01:27:19;;;;;;;179.90;32.43;;;;;;;;;;5055922;28;20293;-82
2022/12/26 01:29:45;;;;;;;154.20;29.60;;;;;;;;;;5055464;28;20315;-82
2022/12/26 01:32:11;;;;;;;159.00;29.07;;;;;;;;;;5073567;28;20741;-82
2022/12/26 01:34:37;;;;;;;138.57;28.97;;;;;;;;;;5056387;28;20293;-82
2022/12/26 01:37:03;;;;;;;163.27;28.43;;;;;;;;;;5073261;28;20321;-82
2022/12/26 01:39:29;;;;;;;155.20;27.73;;;;;;;;;;5056326;28;20429;-82
2022/12/26 01:41:56;;;;;;;137.37;27.27;;;;;;;;;;5073085;28;20282;-82
2022/12/26 01:44:40;;;;;;;163.47;29.70;;;;;;;;;;5073977;28;20359;-82
2022/12/26 01:47:07;;;;;;;152.13;29.08;;;;;;;;;;5055852;28;20329;-83
2022/12/26 01:49:39;;;;;;;154.20;30.27;;;;;;;;;;5055286;28;20489;-83
2022/12/26 01:52:17;;;;;;;140.80;27.47;;;;;;;;;;5055317;28;20287;-83
2022/12/26 01:54:45;;;;;;;132.80;26.50;;;;;;;;;;5056052;28;20735;-83
2022/12/26 01:57:14;;;;;;;150.73;28.13;;;;;;;;;;5055800;28;20371;-84
2022/12/26 01:59:41;;;;;;;178.73;27.47;;;;;;;;;;5055418;28;20385;-83
2022/12/26 02:02:08;;;;;;;121.83;23.97;;;;;;;;;;5072991;28;20706;-83
2022/12/26 02:07:21;;;;;;;105.03;22.70;;;;;;;;;;5073568;28;20275;-83
2022/12/26 02:09:47;;;;;;;84.43;20.20;;;;;;;;;;5073747;28;20577;-83
2022/12/26 02:12:17;;;;;;;95.63;22.50;;;;;;;;;;5076371;28;20306;-83
2022/12/26 02:14:43;;;;;;;76.87;20.33;;;;;;;;;;5076535;28;20340;-83
2022/12/26 02:17:10;;;;;;;80.70;19.77;;;;;;;;;;5058493;28;20331;-83
2022/12/26 02:19:36;;;;;;;85.00;20.53;;;;;;;;;;5059054;28;20365;-83
2022/12/26 02:22:12;;;;;;;86.00;20.33;;;;;;;;;;5059411;28;20305;-83
2022/12/26 02:24:45;;;;;;;84.73;21.10;;;;;;;;;;5042690;28;20326;-82
2022/12/26 02:27:29;;;;;;;76.50;20.10;;;;;;;;;;5058384;28;20290;-83
2022/12/26 02:30:01;;;;;;;70.80;21.43;;;;;;;;;;5058657;28;20392;-83
2022/12/26 02:32:37;;;;;;;82.87;24.47;;;;;;;;;;5041996;28;20295;-83
2022/12/26 02:35:19;;;;;;;99.53;26.93;;;;;;;;;;5076115;28;20286;-83
2022/12/26 02:38:07;;;;;;;81.03;26.17;;;;;;;;;;5058827;28;20139;-83
2022/12/26 02:40:41;;;;;;;92.43;29.60;;;;;;;;;;5076115;28;20279;-83
2022/12/26 02:43:16;;;;;;;93.50;31.47;;;;;;;;;;5076306;28;20290;-84
2022/12/26 02:49:10;;;;;;;109.57;35.87;;;;;;;;;;5075992;28;20056;-83
2022/12/26 03:14:04;;;;;;;93.03;36.65;;;;;;;;;;5058591;28;20287;-83
2022/12/26 03:19:15;;;;;;;102.27;37.40;;;;;;;;;;5060240;28;20282;-84
2022/12/26 03:21:43;;;;;;;87.23;35.27;;;;;;;;;;5057268;28;20310;-84
2022/12/26 03:24:10;;;;;;;98.93;36.70;;;;;;;;;;5075293;28;20362;-84
2022/12/26 03:26:40;;;;;;;115.33;39.00;;;;;;;;;;5058391;28;20294;-84
2022/12/26 03:31:52;;;;;;;;;;;;;;;;;;5076171;28;20275;-83
2022/12/26 03:34:18;;;;;;;102.03;34.73;;;;;;;;;;5073817;28;19921;-84
2022/12/26 03:36:51;;;;;;;95.40;32.63;;;;;;;;;;5075018;28;20305;-83
2022/12/26 04:19:27;;;;;;;90.70;30.23;;;;;;;;;;5074967;28;20287;-83
2022/12/26 04:44:35;;;;;;;76.35;31.83;;;;;;;;;;5056397;28;20370;-84
2022/12/26 04:47:01;;;;;;;79.40;32.47;;;;;;;;;;5056916;28;20429;-84
2022/12/26 04:52:13;;;;;;;65.30;32.80;;;;;;;;;;5073722;28;20283;-83
2022/12/26 04:54:39;;;;;;;72.10;30.23;;;;;;;;;;5056003;28;20313;-83
2022/12/26 04:57:06;;;;;;;65.07;30.40;;;;;;;;;;5056436;28;20817;-83
2022/12/26 04:59:32;;;;;;;71.20;32.73;;;;;;;;;;5074134;28;20315;-83
2022/12/26 05:10:19;;;;;;;66.93;32.47;;;;;;;;;;5056679;28;20052;-84
2022/12/26 05:12:45;;;;;;;62.60;31.13;;;;;;;;;;5056325;28;20309;-83
2022/12/26 05:15:11;;;;;;;63.50;31.00;;;;;;;;;;5056539;28;20601;-83
2022/12/26 05:28:58;;;;;;;52.92;31.27;;;;;;;;;;5073326;28;20283;-83
2022/12/26 05:31:25;;;;;;;56.07;31.07;;;;;;;;;;5073260;28;20157;-83
2022/12/26 05:34:06;;;;;;;54.83;30.67;;;;;;;;;;5073277;28;20321;-83
2022/12/26 05:36:40;;;;;;;54.87;29.97;;;;;;;;;;5055189;28;20393;-82
2022/12/26 05:39:07;;;;;;;48.90;28.97;;;;;;;;;;5073200;28;20278;-82
2022/12/26 05:41:33;;;;;;;52.43;29.20;;;;;;;;;;5039438;28;20294;-82
2022/12/26 05:43:59;;;;;;;49.73;30.40;;;;;;;;;;5055289;28;20282;-82
2022/12/26 05:46:25;;;;;;;55.67;31.10;;;;;;;;;;5059455;28;20299;-83
2022/12/26 05:48:51;;;;;;;55.40;29.43;;;;;;;;;;5059833;28;20302;-82
2022/12/26 05:51:17;;;;;;;48.43;29.20;;;;;;;;;;5059086;28;20314;-82
2022/12/26 05:53:44;;;;;;;51.67;30.07;;;;;;;;;;5076918;28;20318;-83
2022/12/26 05:56:11;;;;;;;42.43;27.87;;;;;;;;;;5076879;28;20432;-83
2022/12/26 05:58:37;;;;;;;43.67;27.10;;;;;;;;;;5042837;28;20286;-83
2022/12/26 06:01:05;;;;;;;52.23;28.50;;;;;;;;;;5076810;28;20369;-82
2022/12/26 06:03:31;;;;;;;45.97;27.90;;;;;;;;;;5076837;28;20278;-83
2022/12/26 06:05:57;;;;;;;43.07;29.00;;;;;;;;;;5076736;28;20279;-82
2022/12/26 06:08:23;;;;;;;39.57;26.17;;;;;;;;;;5076730;28;20282;-82
2022/12/26 06:10:49;;;;;;;41.23;26.10;;;;;;;;;;5076676;28;20496;-82
2022/12/26 06:13:15;;;;;;;34.93;24.47;;;;;;;;;;5058924;28;20377;-82
2022/12/26 06:15:41;;;;;;;35.00;24.37;;;;;;;;;;5077016;28;20382;-82
2022/12/26 06:18:07;;;;;;;36.53;23.93;;;;;;;;;;5058853;28;20283;-82
2022/12/26 06:20:34;;;;;;;40.77;23.67;;;;;;;;;;5058574;28;20283;-83
2022/12/26 06:23:00;;;;;;;36.47;24.27;;;;;;;;;;5076480;28;20285;-82
2022/12/26 06:25:26;;;;;;;34.00;24.30;;;;;;;;;;5058778;28;20615;-82
2022/12/26 06:27:52;;;;;;;35.47;23.37;;;;;;;;;;5058571;28;20278;-82
2022/12/26 06:30:18;;;;;;;35.30;23.50;;;;;;;;;;5058948;28;20365;-82
2022/12/26 06:32:44;;;;;;;35.97;23.27;;;;;;;;;;5058839;28;20361;-82
2022/12/26 06:35:11;;;;;;;33.60;23.63;;;;;;;;;;5058600;28;20818;-82
2022/12/26 06:37:37;;;;;;;34.30;23.97;;;;;;;;;;5076192;28;20370;-82
2022/12/26 06:40:04;;;;;;;36.30;23.57;;;;;;;;;;5058200;28;20282;-82
2022/12/26 06:42:30;;;;;;;31.77;23.27;;;;;;;;;;5058455;28;20290;-82
2022/12/26 06:44:56;;;;;;;29.90;21.93;;;;;;;;;;5058660;28;20301;-82
2022/12/26 06:47:22;;;;;;;29.47;20.77;;;;;;;;;;5058331;28;20342;-82
2022/12/26 06:49:50;;;;;;;30.60;21.97;;;;;;;;;;5057855;28;20332;-83
2022/12/26 06:52:16;;;;;;;31.73;20.70;;;;;;;;;;5058237;28;20298;-83
2022/12/26 06:54:42;;;;;;;28.43;19.87;;;;;;;;;;5058249;28;20318;-82
2022/12/26 06:57:08;;;;;;;26.07;19.43;;;;;;;;;;5075162;28;20353;-82
2022/12/26 06:59:34;;;;;;;25.47;17.30;;;;;;;;;;5076287;28;20318;-83
2022/12/26 07:02:00;;;;;;;26.00;17.60;;;;;;;;;;5058924;28;20936;-82
2022/12/26 07:04:26;;;;;;;25.43;16.77;;;;;;;;;;5057765;28;20323;-82
2022/12/26 07:06:52;;;;;;;29.23;18.47;;;;;;;;;;5041223;28;20689;-82
2022/12/26 07:09:18;;;;;;;22.50;14.10;;;;;;;;;;5075569;28;20320;-82
2022/12/26 07:11:46;;;;;;;22.40;15.00;;;;;;;;;;5057869;28;20295;-82
2022/12/26 07:14:12;;;;;;;24.80;15.30;;;;;;;;;;5057780;28;20335;-81
2022/12/26 07:16:39;;;;;;;22.80;15.07;;;;;;;;;;5057618;28;20302;-82
2022/12/26 07:19:06;;;;;;;17.60;12.07;;;;;;;;;;5057961;28;20356;-83
2022/12/26 07:21:32;;;;;;;24.00;12.87;;;;;;;;;;5075651;28;20301;-82
2022/12/26 07:23:58;;;;;;;19.87;11.77;;;;;;;;;;5057720;28;20813;-83
2022/12/26 07:26:25;;;;;;;23.33;11.60;;;;;;;;;;5058056;28;20267;-82
2022/12/26 07:28:55;;;;;;;26.77;13.10;;;;;;;;;;5058376;28;20323;-83
2022/12/26 07:31:21;;;;;;;23.77;11.20;;;;;;;;;;5075920;28;20371;-82
2022/12/26 07:33:48;;;;;;;16.83;10.77;;;;;;;;;;5057199;28;20286;-83
2022/12/26 07:36:14;;;;;;;22.27;12.93;;;;;;;;;;5075012;28;20334;-82
2022/12/26 07:38:40;;;;;;;20.27;11.70;;;;;;;;;;5074997;28;20282;-82
2022/12/26 07:43:51;;;;;;;17.77;11.03;;;;;;;;;;5057710;28;20778;-82
2022/12/26 07:46:17;;;;;;;17.57;11.03;;;;;;;;;;5074887;28;20397;-81
2022/12/26 07:48:44;;;;;;;18.57;10.90;;;;;;;;;;5056800;28;20428;-82
2022/12/26 07:51:10;;;;;;;20.83;11.33;;;;;;;;;;5075351;28;20283;-82
2022/12/26 07:53:36;;;;;;;16.23;9.70;;;;;;;;;;5057340;28;20425;-82
2022/12/26 07:56:02;;;;;;;20.03;10.40;;;;;;;;;;5074507;28;20298;-82
2022/12/26 07:58:29;;;;;;;17.60;10.07;;;;;;;;;;5074691;28;20282;-83
2022/12/26 08:00:55;;;;;;;15.97;9.40;;;;;;;;;;5074518;28;20314;-83
2022/12/26 08:03:21;;;;;;;16.10;9.30;;;;;;;;;;5074567;28;20289;-84
2022/12/26 08:05:48;;;;;;;17.43;9.77;;;;;;;;;;5056786;28;20294;-84
2022/12/26 08:08:14;;;;;;;18.60;9.23;;;;;;;;;;5074056;28;20428;-83
2022/12/26 08:10:40;;;;;;;16.10;9.40;;;;;;;;;;5056543;28;20287;-82
2022/12/26 08:13:06;;;;;;;15.60;8.90;;;;;;;;;;5074298;28;20387;-81
2022/12/26 08:15:32;;;;;;;17.23;8.90;;;;;;;;;;5057413;28;20327;-81
2022/12/26 08:17:59;;;;;;;14.77;8.17;;;;;;;;;;5074762;28;20286;-78
2022/12/26 08:20:25;;;;;;;17.93;8.10;;;;;;;;;;5057402;28;20291;-87
2022/12/26 08:22:51;;;;;;;17.53;8.73;;;;;;;;;;5074123;28;20274;-81
2022/12/26 08:25:17;;;;;;;18.00;8.27;;;;;;;;;;5074621;28;20357;-82
2022/12/26 08:27:43;;;;;;;16.40;7.80;;;;;;;;;;5074061;28;20282;-83
2022/12/26 08:30:10;;;;;;;16.43;8.03;;;;;;;;;;5074048;28;20293;-81
2022/12/26 08:32:36;;;;;;;20.10;8.20;;;;;;;;;;5073959;28;20289;-82
2022/12/26 08:35:02;;;;;;;15.80;8.33;;;;;;;;;;5074154;28;20373;-82
2022/12/26 08:37:28;;;;;;;16.40;9.00;;;;;;;;;;5073849;28;20369;-83
2022/12/26 08:39:54;;;;;;;19.90;9.63;;;;;;;;;;5073845;28;20322;-82
2022/12/26 08:42:21;;;;;;;18.17;8.90;;;;;;;;;;5073841;28;20389;-84
2022/12/26 08:44:47;;;;;;;15.67;9.03;;;;;;;;;;5055911;28;20290;-83
2022/12/26 08:47:13;;;;;;;14.70;9.10;;;;;;;;;;5074383;28;20428;-85
2022/12/26 08:49:40;;;;;;;21.70;9.87;;;;;;;;;;5055873;28;20369;-87
2022/12/26 08:52:06;;;;;;;18.83;9.23;;;;;;;;;;5056047;28;20352;-85
2022/12/26 08:54:33;;;;;;;17.30;9.30;;;;;;;;;;5073674;28;20325;-85
2022/12/26 08:56:59;;;;;;;15.70;8.90;;;;;;;;;;5073854;28;20820;-77
2022/12/26 08:59:25;;;;;;;17.87;9.50;;;;;;;;;;5073631;28;20369;-87
2022/12/26 09:01:51;;;;;;;22.37;9.63;;;;;;;;;;5073322;28;20817;-86
2022/12/26 09:04:18;;;;;;;16.10;8.43;;;;;;;;;;5055948;28;20382;-87
2022/12/26 09:06:44;;;;;;;17.90;8.40;;;;;;;;;;5055738;28;20314;-86
2022/12/26 09:09:11;;;;;;;13.67;8.27;;;;;;;;;;5073545;28;20287;-86
2022/12/26 09:11:38;;;;;;;17.87;9.03;;;;;;;;;;5073794;28;20289;-83
2022/12/26 09:14:04;;;;;;;14.47;7.70;;;;;;;;;;5073965;28;20366;-79
2022/12/26 09:16:34;;;;;;;14.70;8.17;;;;;;;;;;5073345;28;20344;-80
2022/12/26 09:19:01;;;;;;;12.97;7.90;;;;;;;;;;5073809;28;20289;-79
2022/12/26 09:21:28;;;;;;;16.50;7.70;;;;;;;;;;5080019;28;20282;-84
2022/12/26 09:23:58;;;;;;;21.83;7.60;;;;;;;;;;5079891;28;20300;-85
2022/12/26 09:26:24;;;;;;;21.57;5.93;;;;;;;;;;5079741;28;20316;-85
2022/12/26 09:28:50;;;;;;;24.30;5.17;;;;;;;;;;5079932;28;20297;-85
2022/12/26 09:31:18;;;;;;;33.57;4.63;;;;;;;;;;5079901;28;20364;-85
2022/12/26 09:33:46;;;;;;;20.37;3.47;;;;;;;;;;5079984;28;20365;-85
2022/12/26 09:36:13;;;;;;;19.87;3.83;;;;;;;;;;5079876;28;20294;-84
2022/12/26 09:38:39;;;;;;;27.93;5.10;;;;;;;;;;5079921;28;20283;-84
2022/12/26 09:41:17;;;;;;;20.87;3.33;;;;;;;;;;5062989;28;20332;-85
2022/12/26 09:43:50;;;;;;;18.07;3.30;;;;;;;;;;5079823;28;20375;-86
2022/12/26 09:46:21;;;;;;;24.33;3.60;;;;;;;;;;5079802;28;20358;-84
2022/12/26 09:48:50;;;;;;;16.57;3.23;;;;;;;;;;5079722;28;20671;-82
2022/12/26 09:51:16;;;;;;;16.47;3.23;;;;;;;;;;5062255;28;20759;-85
2022/12/26 09:53:42;;;;;;;20.00;3.80;;;;;;;;;;5079898;28;20348;-83
2022/12/26 09:56:14;;;;;;;20.50;2.77;;;;;;;;;;5062411;28;20313;-84
2022/12/26 09:58:49;;;;;;;15.77;3.27;;;;;;;;;;5079754;28;20322;-84
2022/12/26 10:01:19;;;;;;;16.25;3.65;;;;;;;;;;5079736;28;20333;-86
2022/12/26 10:03:48;;;;;;;17.83;3.20;;;;;;;;;;5080336;28;20051;-85
2022/12/26 10:06:16;;;;;;;16.30;3.60;;;;;;;;;;5079703;28;20285;-86
2022/12/26 10:08:54;;;;;;;17.03;3.13;;;;;;;;;;5079699;28;20296;-86
2022/12/26 10:11:27;;;;;;;19.63;3.53;;;;;;;;;;5079695;28;20294;-88
2022/12/26 10:13:59;;;;;;;18.03;3.20;;;;;;;;;;5062821;28;20326;-85
2022/12/26 10:16:41;;;;;;;20.50;3.13;;;;;;;;;;5079572;28;20436;-86
2022/12/26 10:19:10;;;;;;;18.93;3.00;;;;;;;;;;5079257;28;20627;-85
2022/12/26 10:21:48;;;;;;;27.00;3.10;;;;;;;;;;5079576;28;20372;-85
2022/12/26 10:24:26;;;;;;;14.60;2.50;;;;;;;;;;5079568;28;20289;-85
2022/12/26 10:26:57;;;;;;;16.57;2.97;;;;;;;;;;5080068;28;20275;-84
2022/12/26 10:29:27;;;;;;;15.43;2.60;;;;;;;;;;5061598;28;20294;-85
2022/12/26 10:31:56;;;;;;;12.67;2.10;;;;;;;;;;5058612;28;20318;-86
2022/12/26 10:34:29;;;;;;;15.37;2.27;;;;;;;;;;5076292;28;20297;-85
2022/12/26 10:37:14;;;;;;;14.23;1.97;;;;;;;;;;5076213;28;20376;-84
2022/12/26 10:39:47;;;;;;;18.38;2.53;;;;;;;;;;5076260;28;20282;-86
2022/12/26 10:42:32;;;;;;;20.23;3.50;;;;;;;;;;5076530;28;20441;-86
2022/12/26 10:44:59;;;;;;;11.88;2.83;;;;;;;;;;5076046;28;20279;-85
2022/12/26 10:47:25;;;;;;;21.30;3.87;;;;;;;;;;5076876;28;20440;-85
2022/12/26 10:49:52;;;;;;;13.13;2.50;;;;;;;;;;5075988;28;20348;-87
2022/12/26 10:52:26;;;;;;;20.50;2.73;;;;;;;;;;5075875;28;20309;-86
2022/12/26 10:54:54;;;;;;;14.75;2.20;;;;;;;;;;5076544;28;20321;-86
2022/12/26 10:57:21;;;;;;;12.67;1.80;;;;;;;;;;5076061;28;20048;-86
2022/12/26 10:59:48;;;;;;;16.53;2.20;;;;;;;;;;5075829;28;20322;-85
2022/12/26 11:02:23;;;;;;;9.67;1.73;;;;;;;;;;5076531;28;20289;-86
2022/12/26 11:05:04;;;;;;;9.77;1.70;;;;;;;;;;5075644;28;20738;-86
2022/12/26 11:07:32;;;;;;;15.07;1.90;;;;;;;;;;5075614;28;20348;-84
2022/12/26 11:09:59;;;;;;;16.53;2.07;;;;;;;;;;5058332;28;20740;-85
2022/12/26 11:12:39;;;;;;;21.13;2.43;;;;;;;;;;5075640;28;20275;-86
2022/12/26 11:15:26;;;;;;;19.73;2.10;;;;;;;;;;5076282;28;20294;-85
2022/12/26 11:17:53;;;;;;;14.43;2.20;;;;;;;;;;5075925;28;20714;-86
2022/12/26 11:20:20;;;;;;;18.63;3.83;;;;;;;;;;5040960;28;20787;-87
2022/12/26 11:22:46;;;;;;;13.57;2.27;;;;;;;;;;5075927;28;20742;-87
2022/12/26 11:25:33;;;;;;;14.53;2.73;;;;;;;;;;5057629;28;20420;-87
2022/12/26 11:28:02;;;;;;;20.27;2.77;;;;;;;;;;5075016;28;20765;-86
2022/12/26 11:30:28;;;;;;;18.90;2.70;;;;;;;;;;5057616;28;20326;-87
2022/12/26 11:33:09;;;;;;;16.57;3.27;;;;;;;;;;5075223;28;20283;-87
2022/12/26 11:35:37;;;;;;;15.20;3.30;;;;;;;;;;5075634;28;20283;-87
2022/12/26 11:38:07;;;;;;;16.70;3.03;;;;;;;;;;5075076;28;20283;-87
2022/12/26 11:40:38;;;;;;;25.13;3.70;;;;;;;;;;5057918;28;20639;-87
2022/12/26 11:43:06;;;;;;;21.67;3.10;;;;;;;;;;5074495;28;20777;-87
2022/12/26 11:45:36;;;;;;;19.83;2.93;;;;;;;;;;5075734;28;20282;-87
2022/12/26 11:48:02;;;;;;;18.07;2.50;;;;;;;;;;5075434;28;20362;-86
2022/12/26 11:50:29;;;;;;;16.53;3.27;;;;;;;;;;5074589;28;20370;-88
2022/12/26 11:52:55;;;;;;;20.83;3.53;;;;;;;;;;5056938;28;20316;-87
2022/12/26 11:55:21;;;;;;;16.40;2.73;;;;;;;;;;5074716;28;20291;-87
2022/12/26 11:58:06;;;;;;;23.47;3.10;;;;;;;;;;5074645;28;20303;-86
2022/12/26 12:00:36;;;;;;;23.93;3.60;;;;;;;;;;5075150;28;20283;-86
2022/12/26 12:03:11;;;;;;;22.17;2.83;;;;;;;;;;5056906;28;20295;-85
2022/12/26 12:06:07;;;;;;;22.75;3.13;;;;;;;;;;5074760;28;20282;-88
2022/12/26 12:08:51;;;;;;;18.67;3.17;;;;;;;;;;5053532;28;20048;-87
2022/12/26 12:11:36;;;;;;;23.40;4.18;;;;;;;;;;5056787;28;20053;-86
2022/12/26 12:14:02;;;;;;;15.52;3.22;;;;;;;;;;5074356;28;20048;-87
2022/12/26 12:16:47;;;;;;;19.20;2.90;;;;;;;;;;5074754;28;20052;-86
2022/12/26 12:19:16;;;;;;;22.02;3.70;;;;;;;;;;5074821;28;20358;-86
2022/12/26 12:21:42;;;;;;;22.70;3.97;;;;;;;;;;5074227;28;20370;-86
2022/12/26 12:24:16;;;;;;;15.50;2.63;;;;;;;;;;5056178;28;20298;-85
2022/12/26 12:26:52;;;;;;;17.38;2.85;;;;;;;;;;5056573;28;20275;-87
2022/12/26 12:29:32;;;;;;;18.73;3.07;;;;;;;;;;5074227;28;20059;-87
2022/12/26 12:31:59;;;;;;;20.00;3.23;;;;;;;;;;5074011;28;20322;-87
2022/12/26 12:34:46;;;;;;;20.17;3.57;;;;;;;;;;5073639;28;20844;-87
2022/12/26 12:37:35;;;;;;;17.30;2.83;;;;;;;;;;5074512;28;20365;-87
2022/12/26 12:40:16;;;;;;;16.20;3.03;;;;;;;;;;5043256;28;20661;-87
2022/12/26 12:42:48;;;;;;;18.10;3.97;;;;;;;;;;5073980;28;20322;-87
2022/12/26 12:45:18;;;;;;;16.80;2.63;;;;;;;;;;5074354;28;20294;-87
2022/12/26 12:47:53;;;;;;;20.20;3.57;;;;;;;;;;5073811;28;20754;-87
2022/12/26 12:50:19;;;;;;;23.42;3.63;;;;;;;;;;5055727;28;20397;-86
2022/12/26 12:52:54;;;;;;;14.33;3.03;;;;;;;;;;5073759;28;20131;-87
2022/12/26 12:55:20;;;;;;;17.15;2.42;;;;;;;;;;5073706;28;20326;-87
2022/12/26 12:57:52;;;;;;;20.60;2.83;;;;;;;;;;5073610;28;20110;-87
2022/12/26 13:00:23;;;;;;;19.67;2.87;;;;;;;;;;5073636;28;20375;-86
2022/12/26 13:02:50;;;;;;;17.87;2.20;;;;;;;;;;5056265;28;20279;-86
2022/12/26 13:05:21;;;;;;;16.80;2.83;;;;;;;;;;5039831;28;20786;-86
2022/12/26 13:07:52;;;;;;;14.07;3.63;;;;;;;;;;5073536;28;20383;-85
2022/12/26 13:10:29;;;;;;;17.80;2.47;;;;;;;;;;5073500;28;20639;-86
2022/12/26 13:12:55;;;;;;;18.17;3.10;;;;;;;;;;5073801;28;20286;-86
2022/12/26 13:15:32;;;;;;;17.97;3.17;;;;;;;;;;5073460;28;20283;-85
2022/12/26 13:17:58;;;;;;;15.20;2.10;;;;;;;;;;5073995;28;20729;-85
2022/12/26 13:20:44;;;;;;;16.67;2.30;;;;;;;;;;5073931;28;20283;-85
2022/12/26 13:26:15;;;;;;;46.00;19.87;;;;;;;;;;5073944;28;20275;-86
2022/12/26 13:29:02;;;;;;;32.57;10.63;;;;;;;;;;5056508;28;20313;-86
2022/12/26 13:31:32;;;;;;;42.40;14.73;;;;;;;;;;5073383;28;20278;-88
2022/12/26 13:33:59;;;;;;;51.63;23.50;;;;;;;;;;5055362;28;20302;-89
2022/12/26 13:36:35;;;;;;;36.30;15.37;;;;;;;;;;5073739;28;20313;-86
2022/12/26 13:39:02;;;;;;;25.20;7.13;;;;;;;;;;5073273;28;20315;-84
2022/12/26 13:44:13;;;;;;;;;;;;;;;;;;5074511;28;20680;-83
2022/12/26 13:46:39;;;;;;;20.00;3.87;;;;;;;;;;5038937;28;20317;-87
2022/12/26 13:49:25;;;;;;;19.10;4.43;;;;;;;;;;5055196;28;20374;-87
2022/12/26 13:51:52;;;;;;;21.77;4.07;;;;;;;;;;5072951;28;20813;-86
2022/12/26 13:54:20;;;;;;;26.70;4.40;;;;;;;;;;5073099;28;20275;-85
2022/12/26 13:56:46;;;;;;;19.60;3.83;;;;;;;;;;5073225;28;20393;-84
2022/12/26 13:59:15;;;;;;;20.27;3.50;;;;;;;;;;5055363;28;20862;-84
2022/12/26 14:01:44;;;;;;;21.57;4.07;;;;;;;;;;5072968;28;20762;-84
2022/12/26 14:04:22;;;;;;;13.30;3.17;;;;;;;;;;5073615;28;20285;-83
2022/12/26 14:06:54;;;;;;;21.17;3.50;;;;;;;;;;5056573;28;20817;-84
2022/12/26 14:09:29;;;;;;;21.80;3.33;;;;;;;;;;5076645;28;20326;-82
2022/12/26 14:11:55;;;;;;;24.42;11.35;;;;;;;;;;5043246;28;20781;-82
2022/12/26 14:14:30;;;;;;;15.20;4.47;;;;;;;;;;5059826;28;20088;-86
2022/12/26 14:17:15;;;;;;;18.60;3.60;;;;;;;;;;5076805;28;20377;-86
2022/12/26 14:19:59;;;;;;;23.10;3.65;;;;;;;;;;5076648;28;20060;-88
2022/12/26 14:22:46;;;;;;;25.70;4.03;;;;;;;;;;5076544;28;20106;-88
2022/12/26 14:25:15;;;;;;;21.27;3.60;;;;;;;;;;5076991;28;20585;-86
2022/12/26 14:27:45;;;;;;;22.77;4.03;;;;;;;;;;5077038;28;20750;-85
2022/12/26 14:30:19;;;;;;;21.23;4.57;;;;;;;;;;5076840;28;20279;-88
2022/12/26 14:33:01;;;;;;;14.57;3.70;;;;;;;;;;5076518;28;20771;-82
2022/12/26 14:35:45;;;;;;;21.17;5.00;;;;;;;;;;5076468;28;20067;-83
2022/12/26 14:38:18;;;;;;;19.83;5.10;;;;;;;;;;5076750;28;20321;-83
2022/12/26 14:44:29;;;;;;;16.93;4.60;;;;;;;;;;5012725;28;20331;-87
2022/12/26 14:46:57;;;;;;;15.45;4.53;;;;;;;;;;5037327;28;20327;-87
2022/12/26 14:49:30;;;;;;;19.70;3.70;;;;;;;;;;5055291;28;20099;-86
2022/12/26 14:52:16;;;;;;;22.07;3.40;;;;;;;;;;5055096;28;20298;-86
2022/12/26 14:54:45;;;;;;;15.90;3.07;;;;;;;;;;5056048;28;20359;-83
2022/12/26 14:57:30;;;;;;;21.07;3.50;;;;;;;;;;5055841;28;20303;-88
2022/12/26 15:00:14;;;;;;;20.43;3.67;;;;;;;;;;5055598;28;20291;-80
2022/12/26 15:02:44;;;;;;;22.83;4.73;;;;;;;;;;5055675;28;20794;-80
2022/12/26 15:05:13;;;;;;;21.40;4.57;;;;;;;;;;5056254;28;20283;-80
2022/12/26 15:07:58;;;;;;;18.67;3.37;;;;;;;;;;5055601;28;20311;-80
2022/12/26 15:10:24;;;;;;;17.95;2.78;;;;;;;;;;5056403;28;20276;-80
2022/12/26 15:13:05;;;;;;;17.20;3.90;;;;;;;;;;5056127;28;20179;-83
2022/12/26 15:15:32;;;;;;;22.57;4.10;;;;;;;;;;5054462;28;20307;-83
2022/12/26 15:18:04;;;;;;;21.50;3.37;;;;;;;;;;5054881;28;20307;-82
2022/12/26 15:20:49;;;;;;;18.60;2.83;;;;;;;;;;5055451;28;20386;-82
2022/12/26 15:23:30;;;;;;;20.00;3.13;;;;;;;;;;5055394;28;20412;-82
2022/12/26 15:25:56;;;;;;;16.00;3.47;;;;;;;;;;5055328;28;20355;-82
2022/12/26 15:28:41;;;;;;;23.13;4.03;;;;;;;;;;5056074;28;20342;-82
2022/12/26 15:31:25;;;;;;;20.13;3.33;;;;;;;;;;5055190;28;20287;-81
2022/12/26 15:33:55;;;;;;;19.33;2.70;;;;;;;;;;5054204;28;20512;-80
2022/12/26 15:36:33;;;;;;;12.37;2.93;;;;;;;;;;5054972;28;20292;-81
2022/12/26 15:39:05;;;;;;;16.07;2.90;;;;;;;;;;5055062;28;20322;-81
2022/12/26 15:41:37;;;;;;;16.57;3.00;;;;;;;;;;5054967;28;20333;-89
2022/12/26 15:44:22;;;;;;;15.83;3.73;;;;;;;;;;5054917;28;20326;-81
2022/12/26 15:46:55;;;;;;;18.58;3.83;;;;;;;;;;5037967;28;20341;-85
2022/12/26 15:49:24;;;;;;;24.03;4.40;;;;;;;;;;5059552;28;20139;-86
2022/12/26 15:51:53;;;;;;;20.00;4.37;;;;;;;;;;5075269;28;20278;-85
2022/12/26 15:54:48;;;;;;;22.03;6.87;;;;;;;;;;5057068;28;20767;-86
2022/12/26 15:57:28;;;;;;;23.50;5.83;;;;;;;;;;5074639;28;20789;-87
2022/12/26 16:00:07;;;;;;;21.23;4.20;;;;;;;;;;5075033;28;20275;-89
2022/12/26 16:02:45;;;;;;;13.07;3.57;;;;;;;;;;5074466;28;20290;-84
2022/12/26 16:05:30;;;;;;;23.50;11.57;;;;;;;;;;5056514;28;20283;-83
2022/12/26 16:08:05;;;;;;;34.65;18.75;;;;;;;;;;5074357;28;20309;-84
2022/12/26 16:10:33;;;;;;;23.25;7.18;;;;;;;;;;5074554;28;20107;-83
2022/12/26 16:13:22;;;;;;;20.93;5.63;;;;;;;;;;5074351;28;20483;-88
2022/12/26 16:15:50;;;;;;;21.23;4.83;;;;;;;;;;5075131;28;20283;-90
2022/12/26 16:18:18;;;;;;;17.40;4.50;;;;;;;;;;5074282;28;20332;-89
2022/12/26 16:23:32;;;;;;;20.17;3.92;;;;;;;;;;5074429;28;20287;-78
2022/12/26 16:25:59;;;;;;;20.23;4.53;;;;;;;;;;5074390;28;20048;-79
2022/12/26 16:28:33;;;;;;;18.73;5.53;;;;;;;;;;5074004;28;20326;-82
2022/12/26 16:30:59;;;;;;;20.17;6.10;;;;;;;;;;5073223;28;20282;-83
2022/12/26 16:33:28;;;;;;;21.77;5.10;;;;;;;;;;5073720;28;20322;-81
2022/12/26 16:35:54;;;;;;;18.17;4.97;;;;;;;;;;5073582;28;20283;-81
2022/12/26 16:38:24;;;;;;;29.47;10.93;;;;;;;;;;5055983;28;20434;-89
2022/12/26 16:40:51;;;;;;;19.23;6.53;;;;;;;;;;5073726;28;20646;-89
2022/12/26 16:43:17;;;;;;;24.90;5.00;;;;;;;;;;5073807;28;20145;-89
2022/12/26 16:45:44;;;;;;;19.58;5.15;;;;;;;;;;5073817;28;20287;-88
2022/12/26 16:48:13;;;;;;;18.25;2.80;;;;;;;;;;5056799;28;20052;-87
2022/12/26 16:50:45;;;;;;;16.40;3.13;;;;;;;;;;5073720;28;20526;-89
2022/12/26 16:53:11;;;;;;;13.68;3.00;;;;;;;;;;5056292;28;20052;-85
2022/12/26 16:55:46;;;;;;;21.90;4.07;;;;;;;;;;5073428;28;20051;-85